sensor_id;sensor_type;location;lat;lon;timestamp;P1;durP1;ratioP1;P2;durP2;ratioP2
24261;SDS011;12385;51.412;5.540;2023-02-28T00:00:45;20.10;;;10.52;;
24261;SDS011;12385;51.412;5.540;2023-02-28T00:03:11;17.63;;;9.60;;
24261;SDS011;12385;51.412;5.540;2023-02-28T00:05:36;16.10;;;10.15;;
24261;SDS011;12385;51.412;5.540;2023-02-28T00:08:02;17.63;;;10.13;;
24261;SDS011;12385;51.412;5.540;2023-02-28T00:10:29;18.05;;;9.75;;
24261;SDS011;12385;51.412;5.540;2023-02-28T00:13:01;20.30;;;9.90;;
24261;SDS011;12385;51.412;5.540;2023-02-28T00:15:28;16.23;;;9.82;;
24261;SDS011;12385;51.412;5.540;2023-02-28T00:17:54;18.80;;;9.80;;
24261;SDS011;12385;51.412;5.540;2023-02-28T00:20:20;16.75;;;9.70;;
24261;SDS011;12385;51.412;5.540;2023-02-28T00:22:47;17.65;;;9.48;;
24261;SDS011;12385;51.412;5.540;2023-02-28T00:25:16;17.17;;;10.37;;
24261;SDS011;12385;51.412;5.540;2023-02-28T00:27:43;19.65;;;9.73;;
24261;SDS011;12385;51.412;5.540;2023-02-28T00:30:11;19.58;;;10.50;;
24261;SDS011;12385;51.412;5.540;2023-02-28T00:32:38;21.88;;;10.45;;
24261;SDS011;12385;51.412;5.540;2023-02-28T00:35:04;21.70;;;10.60;;
24261;SDS011;12385;51.412;5.540;2023-02-28T00:37:30;17.70;;;10.02;;
24261;SDS011;12385;51.412;5.540;2023-02-28T00:39:57;24.65;;;11.43;;
24261;SDS011;12385;51.412;5.540;2023-02-28T00:42:22;18.60;;;10.98;;
24261;SDS011;12385;51.412;5.540;2023-02-28T00:44:49;21.15;;;11.57;;
24261;SDS011;12385;51.412;5.540;2023-02-28T00:47:15;18.67;;;10.55;;
24261;SDS011;12385;51.412;5.540;2023-02-28T00:49:41;21.35;;;11.02;;
24261;SDS011;12385;51.412;5.540;2023-02-28T00:52:07;20.58;;;11.07;;
24261;SDS011;12385;51.412;5.540;2023-02-28T00:54:33;26.00;;;11.80;;
24261;SDS011;12385;51.412;5.540;2023-02-28T00:56:58;21.85;;;12.13;;
24261;SDS011;12385;51.412;5.540;2023-02-28T00:59:24;21.77;;;12.35;;
24261;SDS011;12385;51.412;5.540;2023-02-28T01:01:50;22.85;;;12.32;;
24261;SDS011;12385;51.412;5.540;2023-02-28T01:04:16;24.55;;;12.38;;
24261;SDS011;12385;51.412;5.540;2023-02-28T01:06:42;17.48;;;11.98;;
24261;SDS011;12385;51.412;5.540;2023-02-28T01:09:10;21.65;;;11.82;;
24261;SDS011;12385;51.412;5.540;2023-02-28T01:11:36;17.05;;;12.27;;
24261;SDS011;12385;51.412;5.540;2023-02-28T01:14:02;20.05;;;11.88;;
24261;SDS011;12385;51.412;5.540;2023-02-28T01:16:29;20.05;;;12.45;;
24261;SDS011;12385;51.412;5.540;2023-02-28T01:18:55;21.80;;;12.88;;
24261;SDS011;12385;51.412;5.540;2023-02-28T01:21:21;23.08;;;11.95;;
24261;SDS011;12385;51.412;5.540;2023-02-28T01:23:47;26.42;;;12.30;;
24261;SDS011;12385;51.412;5.540;2023-02-28T01:28:43;19.38;;;12.32;;
24261;SDS011;12385;51.412;5.540;2023-02-28T01:31:09;20.98;;;13.02;;
24261;SDS011;12385;51.412;5.540;2023-02-28T01:33:36;20.55;;;12.30;;
24261;SDS011;12385;51.412;5.540;2023-02-28T01:36:03;22.10;;;12.50;;
24261;SDS011;12385;51.412;5.540;2023-02-28T01:38:34;22.63;;;12.05;;
24261;SDS011;12385;51.412;5.540;2023-02-28T01:40:59;20.75;;;12.27;;
24261;SDS011;12385;51.412;5.540;2023-02-28T01:43:52;21.10;;;11.93;;
24261;SDS011;12385;51.412;5.540;2023-02-28T01:46:14;19.45;;;12.00;;
24261;SDS011;12385;51.412;5.540;2023-02-28T01:51:19;24.08;;;12.10;;
24261;SDS011;12385;51.412;5.540;2023-02-28T01:53:56;21.15;;;12.05;;
24261;SDS011;12385;51.412;5.540;2023-02-28T01:56:28;19.50;;;11.93;;
24261;SDS011;12385;51.412;5.540;2023-02-28T01:58:58;19.60;;;11.45;;
24261;SDS011;12385;51.412;5.540;2023-02-28T02:01:24;20.48;;;12.75;;
24261;SDS011;12385;51.412;5.540;2023-02-28T02:03:56;21.83;;;11.85;;
24261;SDS011;12385;51.412;5.540;2023-02-28T02:06:30;22.98;;;13.30;;
24261;SDS011;12385;51.412;5.540;2023-02-28T02:09:02;19.25;;;12.52;;
24261;SDS011;12385;51.412;5.540;2023-02-28T02:11:28;20.25;;;13.15;;
24261;SDS011;12385;51.412;5.540;2023-02-28T02:14:05;22.35;;;12.93;;
24261;SDS011;12385;51.412;5.540;2023-02-28T02:17:07;19.98;;;12.82;;
24261;SDS011;12385;51.412;5.540;2023-02-28T02:36:38;21.67;;;13.43;;
24261;SDS011;12385;51.412;5.540;2023-02-28T02:39:19;20.48;;;13.40;;
24261;SDS011;12385;51.412;5.540;2023-02-28T02:41:56;23.95;;;13.73;;
24261;SDS011;12385;51.412;5.540;2023-02-28T02:47:01;24.00;;;14.32;;
24261;SDS011;12385;51.412;5.540;2023-02-28T02:49:32;22.15;;;13.55;;
24261;SDS011;12385;51.412;5.540;2023-02-28T02:52:02;24.27;;;13.90;;
24261;SDS011;12385;51.412;5.540;2023-02-28T02:54:33;23.10;;;14.13;;
24261;SDS011;12385;51.412;5.540;2023-02-28T02:57:08;24.77;;;15.05;;
24261;SDS011;12385;51.412;5.540;2023-02-28T02:59:38;30.75;;;14.57;;
24261;SDS011;12385;51.412;5.540;2023-02-28T03:02:08;25.08;;;14.73;;
24261;SDS011;12385;51.412;5.540;2023-02-28T03:04:39;24.30;;;14.68;;
24261;SDS011;12385;51.412;5.540;2023-02-28T03:07:11;23.33;;;16.17;;
24261;SDS011;12385;51.412;5.540;2023-02-28T03:09:37;25.00;;;15.65;;
24261;SDS011;12385;51.412;5.540;2023-02-28T03:12:02;28.38;;;16.50;;
24261;SDS011;12385;51.412;5.540;2023-02-28T03:15:34;24.30;;;15.82;;
24261;SDS011;12385;51.412;5.540;2023-02-28T03:17:55;21.27;;;14.20;;
24261;SDS011;12385;51.412;5.540;2023-02-28T03:20:35;23.38;;;13.77;;
24261;SDS011;12385;51.412;5.540;2023-02-28T03:23:10;23.40;;;13.93;;
24261;SDS011;12385;51.412;5.540;2023-02-28T03:25:45;26.98;;;14.90;;
24261;SDS011;12385;51.412;5.540;2023-02-28T03:28:19;21.98;;;14.23;;
24261;SDS011;12385;51.412;5.540;2023-02-28T03:33:42;19.55;;;12.75;;
24261;SDS011;12385;51.412;5.540;2023-02-28T03:36:21;20.58;;;12.82;;
24261;SDS011;12385;51.412;5.540;2023-02-28T03:38:54;22.50;;;11.95;;
24261;SDS011;12385;51.412;5.540;2023-02-28T03:41:32;18.70;;;12.27;;
24261;SDS011;12385;51.412;5.540;2023-02-28T03:44:09;18.17;;;11.55;;
24261;SDS011;12385;51.412;5.540;2023-02-28T03:46:41;18.80;;;10.85;;
24261;SDS011;12385;51.412;5.540;2023-02-28T03:49:16;18.90;;;9.32;;
24261;SDS011;12385;51.412;5.540;2023-02-28T03:51:46;15.55;;;9.65;;
24261;SDS011;12385;51.412;5.540;2023-02-28T03:54:15;14.27;;;8.85;;
24261;SDS011;12385;51.412;5.540;2023-02-28T03:59:15;19.63;;;8.70;;
24261;SDS011;12385;51.412;5.540;2023-02-28T04:01:55;14.57;;;8.05;;
24261;SDS011;12385;51.412;5.540;2023-02-28T04:04:23;14.00;;;7.50;;
24261;SDS011;12385;51.412;5.540;2023-02-28T04:06:50;12.23;;;7.43;;
24261;SDS011;12385;51.412;5.540;2023-02-28T04:09:17;18.20;;;8.23;;
24261;SDS011;12385;51.412;5.540;2023-02-28T04:11:49;12.20;;;6.82;;
24261;SDS011;12385;51.412;5.540;2023-02-28T04:14:16;14.68;;;8.00;;
24261;SDS011;12385;51.412;5.540;2023-02-28T04:16:43;14.50;;;7.65;;
24261;SDS011;12385;51.412;5.540;2023-02-28T04:19:10;14.90;;;6.93;;
24261;SDS011;12385;51.412;5.540;2023-02-28T04:21:46;14.95;;;7.72;;
24261;SDS011;12385;51.412;5.540;2023-02-28T04:24:15;11.25;;;6.55;;
24261;SDS011;12385;51.412;5.540;2023-02-28T04:26:45;11.73;;;6.60;;
24261;SDS011;12385;51.412;5.540;2023-02-28T04:29:13;14.95;;;7.32;;
24261;SDS011;12385;51.412;5.540;2023-02-28T04:31:43;12.30;;;7.32;;
24261;SDS011;12385;51.412;5.540;2023-02-28T04:34:09;12.70;;;7.18;;
24261;SDS011;12385;51.412;5.540;2023-02-28T04:36:34;14.23;;;7.70;;
24261;SDS011;12385;51.412;5.540;2023-02-28T04:39:00;14.75;;;7.18;;
24261;SDS011;12385;51.412;5.540;2023-02-28T04:41:26;15.20;;;7.20;;
24261;SDS011;12385;51.412;5.540;2023-02-28T04:43:52;15.60;;;7.50;;
24261;SDS011;12385;51.412;5.540;2023-02-28T04:46:18;14.30;;;7.43;;
24261;SDS011;12385;51.412;5.540;2023-02-28T04:48:44;12.98;;;7.20;;
24261;SDS011;12385;51.412;5.540;2023-02-28T04:51:12;13.90;;;7.40;;
24261;SDS011;12385;51.412;5.540;2023-02-28T04:53:39;11.70;;;7.43;;
24261;SDS011;12385;51.412;5.540;2023-02-28T04:56:07;14.30;;;7.45;;
24261;SDS011;12385;51.412;5.540;2023-02-28T04:58:35;13.73;;;7.63;;
24261;SDS011;12385;51.412;5.540;2023-02-28T05:01:15;12.07;;;6.90;;
24261;SDS011;12385;51.412;5.540;2023-02-28T05:03:46;14.68;;;7.43;;
24261;SDS011;12385;51.412;5.540;2023-02-28T05:06:13;13.32;;;6.88;;
24261;SDS011;12385;51.412;5.540;2023-02-28T05:08:39;14.70;;;7.65;;
24261;SDS011;12385;51.412;5.540;2023-02-28T05:11:18;15.85;;;7.47;;
24261;SDS011;12385;51.412;5.540;2023-02-28T05:13:46;14.90;;;7.82;;
24261;SDS011;12385;51.412;5.540;2023-02-28T05:16:13;23.05;;;7.68;;
24261;SDS011;12385;51.412;5.540;2023-02-28T05:18:39;14.75;;;8.70;;
24261;SDS011;12385;51.412;5.540;2023-02-28T05:21:05;15.68;;;9.45;;
24261;SDS011;12385;51.412;5.540;2023-02-28T05:23:42;16.83;;;10.73;;
24261;SDS011;12385;51.412;5.540;2023-02-28T05:26:08;16.52;;;10.52;;
24261;SDS011;12385;51.412;5.540;2023-02-28T05:28:34;20.63;;;12.15;;
24261;SDS011;12385;51.412;5.540;2023-02-28T05:30:59;24.58;;;12.02;;
24261;SDS011;12385;51.412;5.540;2023-02-28T05:33:25;20.88;;;12.55;;
24261;SDS011;12385;51.412;5.540;2023-02-28T05:35:50;22.70;;;13.32;;
24261;SDS011;12385;51.412;5.540;2023-02-28T05:38:16;27.75;;;14.15;;
24261;SDS011;12385;51.412;5.540;2023-02-28T05:40:42;23.95;;;12.57;;
24261;SDS011;12385;51.412;5.540;2023-02-28T05:43:09;19.65;;;11.48;;
24261;SDS011;12385;51.412;5.540;2023-02-28T05:45:35;16.08;;;10.48;;
24261;SDS011;12385;51.412;5.540;2023-02-28T05:48:01;15.38;;;9.85;;
24261;SDS011;12385;51.412;5.540;2023-02-28T05:50:27;14.02;;;9.68;;
24261;SDS011;12385;51.412;5.540;2023-02-28T05:52:52;15.25;;;8.80;;
24261;SDS011;12385;51.412;5.540;2023-02-28T05:55:18;18.77;;;9.13;;
24261;SDS011;12385;51.412;5.540;2023-02-28T05:57:44;17.50;;;9.20;;
24261;SDS011;12385;51.412;5.540;2023-02-28T06:00:10;15.15;;;9.00;;
24261;SDS011;12385;51.412;5.540;2023-02-28T06:02:38;13.77;;;8.68;;
24261;SDS011;12385;51.412;5.540;2023-02-28T06:05:04;16.50;;;8.77;;
24261;SDS011;12385;51.412;5.540;2023-02-28T06:07:29;16.88;;;8.63;;
24261;SDS011;12385;51.412;5.540;2023-02-28T06:09:55;16.05;;;8.50;;
24261;SDS011;12385;51.412;5.540;2023-02-28T06:12:21;19.77;;;8.43;;
24261;SDS011;12385;51.412;5.540;2023-02-28T06:14:46;17.67;;;8.45;;
24261;SDS011;12385;51.412;5.540;2023-02-28T06:17:12;16.33;;;8.68;;
24261;SDS011;12385;51.412;5.540;2023-02-28T06:19:38;15.60;;;8.73;;
24261;SDS011;12385;51.412;5.540;2023-02-28T06:22:05;18.27;;;9.27;;
24261;SDS011;12385;51.412;5.540;2023-02-28T06:24:30;17.35;;;8.98;;
24261;SDS011;12385;51.412;5.540;2023-02-28T06:26:56;14.90;;;9.23;;
24261;SDS011;12385;51.412;5.540;2023-02-28T06:29:24;15.55;;;9.02;;
24261;SDS011;12385;51.412;5.540;2023-02-28T06:31:50;15.05;;;9.35;;
24261;SDS011;12385;51.412;5.540;2023-02-28T06:34:16;20.70;;;9.65;;
24261;SDS011;12385;51.412;5.540;2023-02-28T06:36:42;14.63;;;9.25;;
24261;SDS011;12385;51.412;5.540;2023-02-28T06:39:08;16.55;;;9.65;;
24261;SDS011;12385;51.412;5.540;2023-02-28T06:41:34;16.88;;;9.40;;
24261;SDS011;12385;51.412;5.540;2023-02-28T06:44:03;17.33;;;9.68;;
24261;SDS011;12385;51.412;5.540;2023-02-28T06:46:30;12.82;;;9.18;;
24261;SDS011;12385;51.412;5.540;2023-02-28T06:48:56;14.07;;;8.40;;
24261;SDS011;12385;51.412;5.540;2023-02-28T06:51:22;14.40;;;8.25;;
24261;SDS011;12385;51.412;5.540;2023-02-28T06:53:49;13.98;;;8.32;;
24261;SDS011;12385;51.412;5.540;2023-02-28T06:56:15;15.70;;;8.60;;
24261;SDS011;12385;51.412;5.540;2023-02-28T06:58:45;18.17;;;9.25;;
24261;SDS011;12385;51.412;5.540;2023-02-28T07:01:15;15.55;;;9.40;;
24261;SDS011;12385;51.412;5.540;2023-02-28T07:03:42;14.02;;;8.43;;
24261;SDS011;12385;51.412;5.540;2023-02-28T07:06:07;16.20;;;8.48;;
24261;SDS011;12385;51.412;5.540;2023-02-28T07:08:34;16.05;;;8.30;;
24261;SDS011;12385;51.412;5.540;2023-02-28T07:11:00;13.27;;;6.95;;
24261;SDS011;12385;51.412;5.540;2023-02-28T07:13:26;13.40;;;7.15;;
24261;SDS011;12385;51.412;5.540;2023-02-28T07:15:56;9.77;;;6.60;;
24261;SDS011;12385;51.412;5.540;2023-02-28T07:18:26;12.48;;;7.32;;
24261;SDS011;12385;51.412;5.540;2023-02-28T07:20:52;11.93;;;6.28;;
24261;SDS011;12385;51.412;5.540;2023-02-28T07:23:18;10.00;;;6.60;;
24261;SDS011;12385;51.412;5.540;2023-02-28T07:25:44;10.60;;;5.70;;
24261;SDS011;12385;51.412;5.540;2023-02-28T07:28:11;10.27;;;6.43;;
24261;SDS011;12385;51.412;5.540;2023-02-28T07:30:37;12.75;;;5.90;;
24261;SDS011;12385;51.412;5.540;2023-02-28T07:33:03;10.55;;;5.95;;
24261;SDS011;12385;51.412;5.540;2023-02-28T07:35:28;8.90;;;5.70;;
24261;SDS011;12385;51.412;5.540;2023-02-28T07:37:55;10.73;;;5.60;;
24261;SDS011;12385;51.412;5.540;2023-02-28T07:40:22;14.98;;;5.30;;
24261;SDS011;12385;51.412;5.540;2023-02-28T07:42:48;7.57;;;5.28;;
24261;SDS011;12385;51.412;5.540;2023-02-28T07:45:14;7.18;;;4.68;;
24261;SDS011;12385;51.412;5.540;2023-02-28T07:47:40;10.05;;;5.03;;
24261;SDS011;12385;51.412;5.540;2023-02-28T07:50:07;8.80;;;4.57;;
24261;SDS011;12385;51.412;5.540;2023-02-28T07:52:36;9.15;;;4.68;;
24261;SDS011;12385;51.412;5.540;2023-02-28T07:55:02;7.68;;;4.28;;
24261;SDS011;12385;51.412;5.540;2023-02-28T07:57:29;7.30;;;4.28;;
24261;SDS011;12385;51.412;5.540;2023-02-28T07:59:55;7.70;;;4.40;;
24261;SDS011;12385;51.412;5.540;2023-02-28T08:02:20;6.80;;;4.28;;
24261;SDS011;12385;51.412;5.540;2023-02-28T08:04:48;8.45;;;3.95;;
24261;SDS011;12385;51.412;5.540;2023-02-28T08:07:14;9.15;;;4.20;;
24261;SDS011;12385;51.412;5.540;2023-02-28T08:09:41;7.35;;;4.15;;
24261;SDS011;12385;51.412;5.540;2023-02-28T08:12:08;9.02;;;3.85;;
24261;SDS011;12385;51.412;5.540;2023-02-28T08:14:34;6.50;;;4.07;;
24261;SDS011;12385;51.412;5.540;2023-02-28T08:17:00;7.82;;;3.65;;
24261;SDS011;12385;51.412;5.540;2023-02-28T08:19:26;6.78;;;3.70;;
24261;SDS011;12385;51.412;5.540;2023-02-28T08:21:54;7.28;;;3.25;;
24261;SDS011;12385;51.412;5.540;2023-02-28T08:24:20;4.70;;;3.13;;
24261;SDS011;12385;51.412;5.540;2023-02-28T08:26:46;7.97;;;3.55;;
24261;SDS011;12385;51.412;5.540;2023-02-28T08:29:12;6.65;;;3.47;;
24261;SDS011;12385;51.412;5.540;2023-02-28T08:31:38;6.13;;;3.38;;
24261;SDS011;12385;51.412;5.540;2023-02-28T08:34:10;5.50;;;3.22;;
24261;SDS011;12385;51.412;5.540;2023-02-28T08:36:38;4.35;;;2.90;;
24261;SDS011;12385;51.412;5.540;2023-02-28T08:39:04;5.93;;;3.40;;
24261;SDS011;12385;51.412;5.540;2023-02-28T08:41:31;5.32;;;3.30;;
24261;SDS011;12385;51.412;5.540;2023-02-28T08:43:57;7.75;;;3.17;;
24261;SDS011;12385;51.412;5.540;2023-02-28T08:46:23;7.85;;;3.40;;
24261;SDS011;12385;51.412;5.540;2023-02-28T08:48:51;6.72;;;3.45;;
24261;SDS011;12385;51.412;5.540;2023-02-28T08:53:50;4.88;;;2.90;;
24261;SDS011;12385;51.412;5.540;2023-02-28T08:56:24;4.95;;;2.85;;
24261;SDS011;12385;51.412;5.540;2023-02-28T08:58:51;3.92;;;2.28;;
24261;SDS011;12385;51.412;5.540;2023-02-28T09:01:21;4.28;;;2.30;;
24261;SDS011;12385;51.412;5.540;2023-02-28T09:03:49;3.92;;;2.65;;
24261;SDS011;12385;51.412;5.540;2023-02-28T09:06:16;4.22;;;2.40;;
24261;SDS011;12385;51.412;5.540;2023-02-28T09:08:42;4.00;;;2.40;;
24261;SDS011;12385;51.412;5.540;2023-02-28T09:11:08;4.25;;;2.40;;
24261;SDS011;12385;51.412;5.540;2023-02-28T09:13:35;8.23;;;3.00;;
24261;SDS011;12385;51.412;5.540;2023-02-28T09:16:02;5.80;;;2.30;;
24261;SDS011;12385;51.412;5.540;2023-02-28T09:18:29;3.58;;;2.13;;
24261;SDS011;12385;51.412;5.540;2023-02-28T09:20:55;5.82;;;2.22;;
24261;SDS011;12385;51.412;5.540;2023-02-28T09:23:22;4.30;;;2.17;;
24261;SDS011;12385;51.412;5.540;2023-02-28T09:25:52;4.13;;;2.20;;
24261;SDS011;12385;51.412;5.540;2023-02-28T09:28:19;3.75;;;2.03;;
24261;SDS011;12385;51.412;5.540;2023-02-28T09:30:46;3.28;;;2.03;;
24261;SDS011;12385;51.412;5.540;2023-02-28T09:33:14;5.80;;;1.92;;
24261;SDS011;12385;51.412;5.540;2023-02-28T09:35:41;2.97;;;2.00;;
24261;SDS011;12385;51.412;5.540;2023-02-28T09:38:08;4.15;;;2.30;;
24261;SDS011;12385;51.412;5.540;2023-02-28T09:40:38;7.10;;;2.03;;
24261;SDS011;12385;51.412;5.540;2023-02-28T09:43:11;2.38;;;1.80;;
24261;SDS011;12385;51.412;5.540;2023-02-28T09:45:40;2.97;;;2.15;;
24261;SDS011;12385;51.412;5.540;2023-02-28T09:48:14;2.75;;;2.30;;
24261;SDS011;12385;51.412;5.540;2023-02-28T09:50:48;8.85;;;1.75;;
24261;SDS011;12385;51.412;5.540;2023-02-28T09:53:31;4.05;;;1.80;;
24261;SDS011;12385;51.412;5.540;2023-02-28T09:55:59;4.00;;;1.90;;
24261;SDS011;12385;51.412;5.540;2023-02-28T09:58:45;3.80;;;1.90;;
24261;SDS011;12385;51.412;5.540;2023-02-28T10:01:53;3.00;;;2.08;;
24261;SDS011;12385;51.412;5.540;2023-02-28T10:04:46;2.03;;;1.42;;
24261;SDS011;12385;51.412;5.540;2023-02-28T10:13:05;2.92;;;1.90;;
24261;SDS011;12385;51.412;5.540;2023-02-28T10:15:38;2.58;;;1.52;;
24261;SDS011;12385;51.412;5.540;2023-02-28T10:18:05;2.28;;;1.90;;
24261;SDS011;12385;51.412;5.540;2023-02-28T10:20:37;3.38;;;1.67;;
24261;SDS011;12385;51.412;5.540;2023-02-28T10:23:09;2.72;;;1.85;;
24261;SDS011;12385;51.412;5.540;2023-02-28T10:25:37;3.65;;;1.90;;
24261;SDS011;12385;51.412;5.540;2023-02-28T10:28:13;3.25;;;2.08;;
24261;SDS011;12385;51.412;5.540;2023-02-28T10:30:41;3.60;;;1.77;;
24261;SDS011;12385;51.412;5.540;2023-02-28T10:33:30;3.75;;;2.08;;
24261;SDS011;12385;51.412;5.540;2023-02-28T10:35:56;4.70;;;1.95;;
24261;SDS011;12385;51.412;5.540;2023-02-28T10:38:23;4.45;;;1.83;;
24261;SDS011;12385;51.412;5.540;2023-02-28T10:43:35;6.70;;;1.90;;
24261;SDS011;12385;51.412;5.540;2023-02-28T10:48:39;3.55;;;1.98;;
24261;SDS011;12385;51.412;5.540;2023-02-28T10:51:10;2.15;;;1.67;;
24261;SDS011;12385;51.412;5.540;2023-02-28T10:53:58;2.72;;;1.95;;
24261;SDS011;12385;51.412;5.540;2023-02-28T10:56:23;3.30;;;1.88;;
24261;SDS011;12385;51.412;5.540;2023-02-28T11:01:39;3.28;;;1.63;;
24261;SDS011;12385;51.412;5.540;2023-02-28T11:04:18;4.57;;;1.80;;
24261;SDS011;12385;51.412;5.540;2023-02-28T11:09:48;4.25;;;2.35;;
24261;SDS011;12385;51.412;5.540;2023-02-28T11:12:23;7.65;;;2.00;;
24261;SDS011;12385;51.412;5.540;2023-02-28T11:14:59;3.58;;;1.77;;
24261;SDS011;12385;51.412;5.540;2023-02-28T11:17:29;5.07;;;2.15;;
24261;SDS011;12385;51.412;5.540;2023-02-28T11:20:06;4.38;;;2.17;;
24261;SDS011;12385;51.412;5.540;2023-02-28T11:22:43;4.20;;;2.00;;
24261;SDS011;12385;51.412;5.540;2023-02-28T11:25:19;2.78;;;1.83;;
24261;SDS011;12385;51.412;5.540;2023-02-28T11:27:49;3.95;;;1.83;;
24261;SDS011;12385;51.412;5.540;2023-02-28T11:33:40;2.40;;;1.75;;
24261;SDS011;12385;51.412;5.540;2023-02-28T11:35:58;3.53;;;2.00;;
24261;SDS011;12385;51.412;5.540;2023-02-28T11:38:34;7.32;;;2.10;;
24261;SDS011;12385;51.412;5.540;2023-02-28T11:41:05;5.07;;;1.80;;
24261;SDS011;12385;51.412;5.540;2023-02-28T11:46:36;4.25;;;2.00;;
24261;SDS011;12385;51.412;5.540;2023-02-28T11:49:26;3.28;;;1.90;;
24261;SDS011;12385;51.412;5.540;2023-02-28T11:52:33;4.85;;;1.90;;
24261;SDS011;12385;51.412;5.540;2023-02-28T12:09:43;3.60;;;2.17;;
24261;SDS011;12385;51.412;5.540;2023-02-28T12:12:35;5.25;;;2.30;;
24261;SDS011;12385;51.412;5.540;2023-02-28T12:15:28;7.45;;;2.20;;
24261;SDS011;12385;51.412;5.540;2023-02-28T12:21:08;4.03;;;2.30;;
24261;SDS011;12385;51.412;5.540;2023-02-28T12:24:01;4.43;;;2.55;;
24261;SDS011;12385;51.412;5.540;2023-02-28T12:26:41;4.82;;;2.63;;
24261;SDS011;12385;51.412;5.540;2023-02-28T12:34:55;6.13;;;2.50;;
24261;SDS011;12385;51.412;5.540;2023-02-28T12:37:31;3.22;;;2.10;;
24261;SDS011;12385;51.412;5.540;2023-02-28T12:40:05;5.03;;;2.38;;
24261;SDS011;12385;51.412;5.540;2023-02-28T12:42:38;7.32;;;2.30;;
24261;SDS011;12385;51.412;5.540;2023-02-28T12:45:12;5.80;;;2.20;;
24261;SDS011;12385;51.412;5.540;2023-02-28T12:47:44;3.85;;;2.58;;
24261;SDS011;12385;51.412;5.540;2023-02-28T12:50:11;3.22;;;2.20;;
24261;SDS011;12385;51.412;5.540;2023-02-28T12:52:40;2.92;;;2.13;;
24261;SDS011;12385;51.412;5.540;2023-02-28T12:58:17;3.58;;;2.00;;
24261;SDS011;12385;51.412;5.540;2023-02-28T13:00:58;6.47;;;1.88;;
24261;SDS011;12385;51.412;5.540;2023-02-28T13:11:29;3.03;;;2.15;;
24261;SDS011;12385;51.412;5.540;2023-02-28T13:17:32;7.85;;;2.50;;
24261;SDS011;12385;51.412;5.540;2023-02-28T13:20:16;6.10;;;2.17;;
24261;SDS011;12385;51.412;5.540;2023-02-28T13:27:47;3.15;;;2.17;;
24261;SDS011;12385;51.412;5.540;2023-02-28T13:38:50;4.20;;;2.10;;
24261;SDS011;12385;51.412;5.540;2023-02-28T13:46:29;4.20;;;2.22;;
24261;SDS011;12385;51.412;5.540;2023-02-28T13:48:55;4.47;;;2.35;;
24261;SDS011;12385;51.412;5.540;2023-02-28T13:56:57;4.85;;;2.25;;
24261;SDS011;12385;51.412;5.540;2023-02-28T14:03:13;3.35;;;2.42;;
24261;SDS011;12385;51.412;5.540;2023-02-28T14:06:07;3.53;;;2.17;;
24261;SDS011;12385;51.412;5.540;2023-02-28T14:11:53;4.28;;;1.98;;
24261;SDS011;12385;51.412;5.540;2023-02-28T14:17:03;3.08;;;1.98;;
24261;SDS011;12385;51.412;5.540;2023-02-28T14:19:37;3.95;;;2.08;;
24261;SDS011;12385;51.412;5.540;2023-02-28T14:27:57;5.45;;;2.00;;
24261;SDS011;12385;51.412;5.540;2023-02-28T14:30:48;4.70;;;2.13;;
24261;SDS011;12385;51.412;5.540;2023-02-28T14:41:30;5.85;;;2.10;;
24261;SDS011;12385;51.412;5.540;2023-02-28T14:44:02;3.30;;;1.90;;
24261;SDS011;12385;51.412;5.540;2023-02-28T14:46:39;3.35;;;1.98;;
24261;SDS011;12385;51.412;5.540;2023-02-28T14:49:07;6.35;;;2.25;;
24261;SDS011;12385;51.412;5.540;2023-02-28T14:54:44;3.30;;;2.05;;
24261;SDS011;12385;51.412;5.540;2023-02-28T14:57:24;2.80;;;2.17;;
24261;SDS011;12385;51.412;5.540;2023-02-28T15:00:06;4.75;;;2.10;;
24261;SDS011;12385;51.412;5.540;2023-02-28T15:02:48;3.80;;;2.17;;
24261;SDS011;12385;51.412;5.540;2023-02-28T15:07:43;2.67;;;1.90;;
24261;SDS011;12385;51.412;5.540;2023-02-28T15:10:19;2.28;;;1.80;;
24261;SDS011;12385;51.412;5.540;2023-02-28T15:12:52;2.55;;;1.90;;
24261;SDS011;12385;51.412;5.540;2023-02-28T15:15:21;6.18;;;2.10;;
24261;SDS011;12385;51.412;5.540;2023-02-28T15:17:50;2.88;;;1.88;;
24261;SDS011;12385;51.412;5.540;2023-02-28T15:20:20;5.57;;;1.92;;
24261;SDS011;12385;51.412;5.540;2023-02-28T15:22:47;3.38;;;1.98;;
24261;SDS011;12385;51.412;5.540;2023-02-28T15:25:17;2.80;;;2.10;;
24261;SDS011;12385;51.412;5.540;2023-02-28T15:27:46;6.82;;;1.70;;
24261;SDS011;12385;51.412;5.540;2023-02-28T15:30:15;6.32;;;2.20;;
24261;SDS011;12385;51.412;5.540;2023-02-28T15:32:44;3.50;;;1.90;;
24261;SDS011;12385;51.412;5.540;2023-02-28T15:35:28;3.28;;;1.70;;
24261;SDS011;12385;51.412;5.540;2023-02-28T15:37:56;3.17;;;1.92;;
24261;SDS011;12385;51.412;5.540;2023-02-28T15:40:46;3.05;;;1.73;;
24261;SDS011;12385;51.412;5.540;2023-02-28T15:43:34;4.30;;;1.75;;
24261;SDS011;12385;51.412;5.540;2023-02-28T15:48:53;3.60;;;2.20;;
24261;SDS011;12385;51.412;5.540;2023-02-28T15:51:21;5.93;;;2.20;;
24261;SDS011;12385;51.412;5.540;2023-02-28T15:54:07;3.35;;;2.00;;
24261;SDS011;12385;51.412;5.540;2023-02-28T15:56:42;3.25;;;2.00;;
24261;SDS011;12385;51.412;5.540;2023-02-28T15:59:16;3.90;;;2.17;;
24261;SDS011;12385;51.412;5.540;2023-02-28T16:01:44;4.80;;;2.10;;
24261;SDS011;12385;51.412;5.540;2023-02-28T16:06:40;4.15;;;2.33;;
24261;SDS011;12385;51.412;5.540;2023-02-28T16:09:12;3.42;;;2.30;;
24261;SDS011;12385;51.412;5.540;2023-02-28T16:11:48;4.07;;;2.20;;
24261;SDS011;12385;51.412;5.540;2023-02-28T16:14:18;6.65;;;2.40;;
24261;SDS011;12385;51.412;5.540;2023-02-28T16:16:51;3.88;;;2.40;;
24261;SDS011;12385;51.412;5.540;2023-02-28T16:19:18;6.20;;;2.50;;
24261;SDS011;12385;51.412;5.540;2023-02-28T16:21:45;4.15;;;2.30;;
24261;SDS011;12385;51.412;5.540;2023-02-28T16:24:11;3.78;;;2.30;;
24261;SDS011;12385;51.412;5.540;2023-02-28T16:26:36;3.72;;;2.55;;
24261;SDS011;12385;51.412;5.540;2023-02-28T16:29:05;3.53;;;2.40;;
24261;SDS011;12385;51.412;5.540;2023-02-28T16:31:35;5.50;;;2.40;;
24261;SDS011;12385;51.412;5.540;2023-02-28T16:34:03;5.15;;;2.50;;
24261;SDS011;12385;51.412;5.540;2023-02-28T16:36:29;3.42;;;2.40;;
24261;SDS011;12385;51.412;5.540;2023-02-28T16:38:55;5.45;;;3.00;;
24261;SDS011;12385;51.412;5.540;2023-02-28T16:41:22;4.00;;;2.35;;
24261;SDS011;12385;51.412;5.540;2023-02-28T16:43:51;4.50;;;2.47;;
24261;SDS011;12385;51.412;5.540;2023-02-28T16:46:19;4.38;;;2.20;;
24261;SDS011;12385;51.412;5.540;2023-02-28T16:48:45;4.18;;;2.60;;
24261;SDS011;12385;51.412;5.540;2023-02-28T16:51:16;6.25;;;2.40;;
24261;SDS011;12385;51.412;5.540;2023-02-28T16:53:42;5.45;;;2.70;;
24261;SDS011;12385;51.412;5.540;2023-02-28T16:56:19;5.28;;;2.72;;
24261;SDS011;12385;51.412;5.540;2023-02-28T16:58:47;5.93;;;2.55;;
24261;SDS011;12385;51.412;5.540;2023-02-28T17:01:14;4.20;;;2.40;;
24261;SDS011;12385;51.412;5.540;2023-02-28T17:03:40;4.40;;;2.70;;
24261;SDS011;12385;51.412;5.540;2023-02-28T17:06:11;4.10;;;2.60;;
24261;SDS011;12385;51.412;5.540;2023-02-28T17:08:52;4.18;;;2.55;;
24261;SDS011;12385;51.412;5.540;2023-02-28T17:11:19;4.65;;;2.95;;
24261;SDS011;12385;51.412;5.540;2023-02-28T17:13:45;5.40;;;2.70;;
24261;SDS011;12385;51.412;5.540;2023-02-28T17:16:17;4.10;;;2.70;;
24261;SDS011;12385;51.412;5.540;2023-02-28T17:18:48;4.45;;;3.00;;
24261;SDS011;12385;51.412;5.540;2023-02-28T17:21:16;5.07;;;2.85;;
24261;SDS011;12385;51.412;5.540;2023-02-28T17:23:42;5.53;;;3.38;;
24261;SDS011;12385;51.412;5.540;2023-02-28T17:26:12;4.72;;;3.08;;
24261;SDS011;12385;51.412;5.540;2023-02-28T17:28:44;8.65;;;3.00;;